Time;durP1;ratioP1;P1;durP2;ratioP2;P2;SDS_P1;SDS_P2;PMS_P1;PMS_P2;Temp;Humidity;BMP_temperature;BMP_pressure;BME280_temperature;BME280_humidity;BME280_pressure;Samples;Min_cycle;Max_cycle;Signal;HPM_P1;HPM_P2
2022/07/31 00:00:55;;;;;;;0.47;0.47;;;23.20;99.90;;;;;;5064667;28;20201;-79
2022/07/31 00:03:21;;;;;;;0.87;0.70;;;23.20;99.90;;;;;;5074785;28;20213;-79
2022/07/31 00:05:46;;;;;;;0.50;0.50;;;23.20;99.90;;;;;;5069588;28;20188;-79
2022/07/31 00:08:12;;;;;;;0.63;0.60;;;23.20;99.90;;;;;;5071379;28;20233;-79
2022/07/31 00:10:38;;;;;;;0.37;0.37;;;23.10;99.90;;;;;;5075661;28;20266;-81
2022/07/31 00:13:03;;;;;;;0.20;0.20;;;23.10;99.90;;;;;;5068691;28;20276;-79
2022/07/31 00:15:29;;;;;;;0.20;0.20;;;23.10;99.90;;;;;;5064694;28;20185;-79
2022/07/31 00:17:54;;;;;;;1.47;0.47;;;23.10;99.90;;;;;;5071970;28;20716;-80
2022/07/31 00:20:20;;;;;;;0.37;0.37;;;23.00;99.90;;;;;;5066356;28;20201;-79
2022/07/31 00:22:47;;;;;;;0.23;0.20;;;23.00;99.90;;;;;;5064903;28;20215;-79
2022/07/31 00:25:14;;;;;;;0.30;0.30;;;22.90;99.90;;;;;;5069165;28;20268;-79
2022/07/31 00:27:40;;;;;;;0.40;0.40;;;22.70;99.90;;;;;;5074524;28;20177;-79
2022/07/31 00:30:07;;;;;;;0.40;0.40;;;22.70;99.90;;;;;;5070321;28;20272;-79
2022/07/31 00:32:33;;;;;;;0.60;0.60;;;22.40;99.90;;;;;;5068868;28;20327;-79
2022/07/31 00:35:00;;;;;;;0.40;0.40;;;22.40;99.90;;;;;;5071351;28;20227;-79
2022/07/31 00:37:26;;;;;;;0.40;0.40;;;22.40;99.90;;;;;;5072572;28;20188;-79
2022/07/31 00:39:53;;;;;;;0.40;0.40;;;22.30;99.90;;;;;;5066924;28;20186;-79
2022/07/31 00:42:23;;;;;;;1.20;0.43;;;22.30;99.90;;;;;;5062381;28;20840;-79
2022/07/31 00:44:49;;;;;;;0.60;0.60;;;22.30;99.90;;;;;;5065782;28;20259;-79
2022/07/31 00:47:16;;;;;;;0.70;0.70;;;22.20;99.90;;;;;;5073364;28;20663;-79
2022/07/31 00:49:42;;;;;;;0.40;0.40;;;22.20;99.90;;;;;;5071634;28;20204;-79
2022/07/31 00:52:07;;;;;;;0.63;0.63;;;22.30;99.90;;;;;;5087751;28;20205;-79
2022/07/31 00:54:34;;;;;;;3.40;0.73;;;22.30;99.90;;;;;;5075969;28;20193;-80
2022/07/31 00:57:00;;;;;;;0.70;0.40;;;22.30;99.90;;;;;;5068918;28;20685;-80
2022/07/31 00:59:26;;;;;;;0.43;0.43;;;22.30;99.90;;;;;;5067963;28;20274;-79
2022/07/31 01:01:53;;;;;;;0.50;0.50;;;22.30;99.90;;;;;;5068032;28;20684;-79
2022/07/31 01:04:19;;;;;;;0.37;0.37;;;22.20;99.90;;;;;;5065706;28;20232;-79
2022/07/31 01:06:45;;;;;;;0.33;0.33;;;22.10;99.90;;;;;;5071869;28;20196;-79
2022/07/31 01:09:13;;;;;;;0.90;0.90;;;22.10;99.90;;;;;;5068456;28;20213;-79
2022/07/31 01:12:11;;;;;;;0.60;0.60;;;22.10;99.90;;;;;;5065616;28;20205;-79
2022/07/31 01:14:56;;;;;;;0.47;0.47;;;22.20;99.90;;;;;;5065746;28;20196;-79
2022/07/31 01:17:24;;;;;;;0.33;0.33;;;22.20;99.90;;;;;;5065630;28;20604;-79
2022/07/31 01:19:51;;;;;;;0.60;0.60;;;22.20;99.90;;;;;;5069468;28;20185;-79
2022/07/31 01:22:29;;;;;;;1.93;0.43;;;22.20;99.90;;;;;;5073181;28;20266;-79
2022/07/31 01:25:28;;;;;;;0.60;0.60;;;22.20;99.90;;;;;;5067708;28;20303;-79
2022/07/31 01:28:09;;;;;;;1.93;0.70;;;22.10;99.90;;;;;;5072464;28;20266;-79
2022/07/31 01:30:45;;;;;;;0.20;0.20;;;22.10;99.90;;;;;;5070182;28;20192;-79
2022/07/31 01:33:19;;;;;;;0.37;0.37;;;22.10;99.90;;;;;;5072577;28;20184;-79
2022/07/31 01:35:52;;;;;;;0.43;0.30;;;22.00;99.90;;;;;;5074546;28;20287;-79
2022/07/31 01:38:35;;;;;;;0.50;0.50;;;22.10;99.90;;;;;;5078235;28;20239;-79
2022/07/31 01:41:06;;;;;;;0.33;0.33;;;22.00;99.90;;;;;;5080804;28;20223;-79
2022/07/31 01:43:40;;;;;;;0.30;0.30;;;22.00;99.90;;;;;;5069389;28;20654;-79
2022/07/31 01:46:10;;;;;;;0.40;0.40;;;22.00;99.90;;;;;;5069221;28;20599;-80
2022/07/31 01:48:37;;;;;;;0.67;0.67;;;22.00;99.90;;;;;;5071214;28;20953;-79
2022/07/31 01:51:04;;;;;;;0.50;0.50;;;22.00;99.90;;;;;;5070766;28;20243;-79
2022/07/31 01:53:30;;;;;;;0.87;0.60;;;21.80;99.90;;;;;;5069406;28;20187;-79
2022/07/31 01:55:57;;;;;;;0.40;0.40;;;21.50;99.90;;;;;;5069893;28;20189;-79
2022/07/31 01:58:24;;;;;;;0.30;0.30;;;21.50;99.90;;;;;;5067172;28;20192;-79
2022/07/31 02:00:52;;;;;;;0.50;0.50;;;21.60;99.90;;;;;;5067657;28;20288;-79
2022/07/31 02:03:19;;;;;;;0.67;0.57;;;21.60;99.90;;;;;;5068468;28;20233;-79
2022/07/31 02:05:46;;;;;;;0.40;0.40;;;21.60;99.90;;;;;;5069464;28;20193;-79
2022/07/31 02:08:14;;;;;;;0.30;0.30;;;21.50;99.90;;;;;;5069212;28;20177;-79
2022/07/31 02:10:43;;;;;;;0.20;0.20;;;21.50;99.90;;;;;;5061674;28;20554;-79
2022/07/31 02:13:10;;;;;;;1.33;0.57;;;21.50;99.90;;;;;;5067120;28;20344;-79
2022/07/31 02:15:36;;;;;;;0.53;0.53;;;21.40;99.90;;;;;;5063760;28;20195;-79
2022/07/31 02:18:03;;;;;;;0.47;0.47;;;21.40;99.90;;;;;;5065411;28;20686;-79
2022/07/31 02:20:30;;;;;;;0.77;0.77;;;21.30;99.90;;;;;;5066584;28;20667;-78
2022/07/31 02:22:57;;;;;;;0.30;0.30;;;21.30;99.90;;;;;;5070269;28;20187;-79
2022/07/31 02:25:23;;;;;;;0.37;0.37;;;21.20;99.90;;;;;;5066203;28;20209;-79
2022/07/31 02:27:50;;;;;;;0.40;0.40;;;21.20;99.90;;;;;;5069356;28;20193;-79
2022/07/31 02:30:16;;;;;;;0.40;0.40;;;21.20;99.90;;;;;;5065091;28;20523;-79
2022/07/31 02:32:45;;;;;;;0.50;0.30;;;21.20;99.90;;;;;;5068879;28;20596;-79
2022/07/31 02:35:12;;;;;;;0.43;0.33;;;21.20;99.90;;;;;;5081291;28;20215;-79
2022/07/31 02:37:38;;;;;;;0.40;0.40;;;21.20;99.90;;;;;;5070096;28;20185;-78
2022/07/31 02:40:06;;;;;;;0.37;0.37;;;21.20;99.90;;;;;;5065066;28;20261;-79
2022/07/31 02:42:33;;;;;;;0.50;0.50;;;21.20;99.90;;;;;;5069276;28;20715;-78
2022/07/31 02:45:00;;;;;;;0.33;0.33;;;21.20;99.90;;;;;;5089708;28;20243;-79
2022/07/31 02:47:27;;;;;;;1.40;0.20;;;21.20;99.90;;;;;;5064862;28;20264;-79
2022/07/31 02:49:54;;;;;;;0.30;0.30;;;21.00;99.90;;;;;;5066219;28;20209;-79
2022/07/31 02:52:21;;;;;;;0.30;0.30;;;20.90;99.90;;;;;;5064245;28;20200;-79
2022/07/31 02:54:46;;;;;;;2.33;0.60;;;20.90;99.90;;;;;;5068665;28;20650;-78
2022/07/31 02:57:12;;;;;;;0.43;0.43;;;20.80;99.90;;;;;;5058559;28;20242;-78
2022/07/31 02:59:38;;;;;;;2.73;0.60;;;20.80;99.90;;;;;;5068177;28;20213;-78
2022/07/31 03:02:05;;;;;;;0.40;0.27;;;20.80;99.90;;;;;;5067715;28;20219;-79
2022/07/31 03:04:31;;;;;;;0.40;0.40;;;20.50;99.90;;;;;;5070125;28;20905;-79
2022/07/31 03:06:59;;;;;;;0.40;0.30;;;20.30;99.90;;;;;;5064927;28;20181;-78
2022/07/31 03:09:25;;;;;;;0.30;0.30;;;20.30;99.90;;;;;;5061865;28;20191;-79
2022/07/31 03:11:50;;;;;;;0.43;0.43;;;20.20;99.90;;;;;;5067659;28;20196;-78
2022/07/31 03:14:17;;;;;;;0.30;0.30;;;20.10;99.90;;;;;;5061260;28;20185;-79
2022/07/31 03:16:45;;;;;;;0.40;0.40;;;20.20;99.90;;;;;;5067562;28;20193;-79
2022/07/31 03:19:11;;;;;;;0.40;0.40;;;20.30;99.90;;;;;;5068317;28;20563;-79
2022/07/31 03:21:37;;;;;;;0.30;0.30;;;20.30;99.90;;;;;;5060277;28;20249;-79
2022/07/31 03:24:04;;;;;;;0.50;0.50;;;20.40;99.90;;;;;;5064555;28;20209;-79
2022/07/31 03:26:29;;;;;;;0.20;0.20;;;20.40;99.90;;;;;;5066512;28;20212;-79
2022/07/31 03:28:55;;;;;;;0.40;0.40;;;20.40;99.90;;;;;;5062415;28;20815;-79
2022/07/31 03:31:21;;;;;;;0.40;0.40;;;20.30;99.90;;;;;;5066172;28;20200;-79
2022/07/31 03:33:46;;;;;;;0.40;0.40;;;20.10;99.90;;;;;;5063126;28;20185;-79
2022/07/31 03:36:12;;;;;;;0.40;0.40;;;19.90;99.90;;;;;;5065131;28;20189;-80
2022/07/31 03:38:38;;;;;;;1.63;0.90;;;19.80;99.90;;;;;;5065972;28;20242;-79
2022/07/31 03:41:04;;;;;;;0.40;0.40;;;19.60;99.90;;;;;;5069617;28;20300;-79
2022/07/31 03:43:31;;;;;;;0.40;0.40;;;19.40;99.90;;;;;;5068002;28;20559;-79
2022/07/31 03:45:59;;;;;;;0.63;0.50;;;19.40;99.90;;;;;;5070224;28;20217;-79
2022/07/31 03:48:26;;;;;;;0.77;0.30;;;19.40;99.90;;;;;;5059840;28;20189;-79
2022/07/31 03:50:52;;;;;;;0.93;0.93;;;19.30;99.90;;;;;;5069911;28;20250;-79
2022/07/31 03:53:18;;;;;;;0.50;0.50;;;19.20;99.90;;;;;;5068330;28;20188;-79
2022/07/31 03:55:44;;;;;;;0.20;0.20;;;19.20;99.90;;;;;;5053109;28;20194;-79
2022/07/31 03:58:11;;;;;;;0.40;0.40;;;19.40;99.90;;;;;;5065817;28;20239;-79
2022/07/31 04:00:36;;;;;;;0.60;0.30;;;19.40;99.90;;;;;;5056224;28;20186;-79
2022/07/31 04:03:11;;;;;;;0.43;0.43;;;19.40;99.90;;;;;;5061398;28;20231;-79
2022/07/31 04:05:40;;;;;;;0.23;0.23;;;19.40;99.90;;;;;;5058684;28;20197;-79
2022/07/31 04:08:07;;;;;;;0.30;0.30;;;19.40;99.90;;;;;;5072575;28;20192;-79
2022/07/31 04:10:34;;;;;;;0.43;0.43;;;19.40;99.90;;;;;;5073735;28;20173;-79
2022/07/31 04:13:03;;;;;;;0.47;0.40;;;19.30;99.90;;;;;;5073768;28;20172;-79
2022/07/31 04:15:29;;;;;;;0.40;0.40;;;19.20;99.90;;;;;;5057475;28;20186;-79
2022/07/31 04:17:55;;;;;;;0.67;0.60;;;19.20;99.90;;;;;;5070414;28;20192;-79
2022/07/31 04:20:20;;;;;;;1.23;0.40;;;19.20;99.90;;;;;;5072196;28;20173;-79
2022/07/31 04:22:47;;;;;;;0.73;0.50;;;19.20;99.90;;;;;;5069488;28;20205;-79
2022/07/31 04:25:13;;;;;;;0.63;0.63;;;19.20;99.90;;;;;;5070292;28;20314;-79
2022/07/31 04:27:39;;;;;;;0.70;0.70;;;19.10;99.90;;;;;;5063796;28;20177;-79
2022/07/31 04:30:05;;;;;;;0.30;0.30;;;19.20;99.90;;;;;;5069294;28;20185;-79
2022/07/31 04:32:31;;;;;;;0.40;0.40;;;19.30;99.90;;;;;;5066658;28;20209;-79
2022/07/31 04:34:57;;;;;;;0.50;0.50;;;19.30;99.90;;;;;;5070835;28;20201;-79
2022/07/31 04:37:22;;;;;;;0.40;0.40;;;19.30;99.90;;;;;;5078427;28;20189;-79
2022/07/31 04:39:48;;;;;;;0.33;0.33;;;19.30;99.90;;;;;;5074048;28;20188;-79
2022/07/31 04:42:14;;;;;;;0.47;0.47;;;19.40;99.90;;;;;;5068504;28;20216;-79
2022/07/31 04:44:39;;;;;;;0.30;0.30;;;19.40;99.90;;;;;;5060189;28;20197;-79
2022/07/31 04:47:06;;;;;;;0.37;0.30;;;19.40;99.90;;;;;;5068968;28;20180;-79
2022/07/31 04:49:32;;;;;;;0.50;0.50;;;19.40;99.90;;;;;;5069330;28;20567;-79
2022/07/31 04:51:59;;;;;;;0.40;0.40;;;19.40;99.90;;;;;;5072735;28;20703;-79
2022/07/31 04:54:25;;;;;;;0.47;0.47;;;19.40;99.90;;;;;;5056700;28;20189;-78
2022/07/31 04:56:51;;;;;;;0.50;0.30;;;19.50;99.90;;;;;;5069980;28;20250;-79
2022/07/31 04:59:19;;;;;;;0.30;0.30;;;19.70;99.90;;;;;;5086738;28;20624;-77
2022/07/31 05:01:45;;;;;;;0.43;0.43;;;19.90;99.90;;;;;;5062778;28;20219;-78
2022/07/31 05:04:11;;;;;;;0.40;0.40;;;20.10;99.90;;;;;;5070063;28;20220;-79
2022/07/31 05:06:45;;;;;;;0.10;0.10;;;20.20;99.90;;;;;;5068883;28;20188;-79
2022/07/31 05:09:14;;;;;;;0.40;0.40;;;20.40;99.90;;;;;;5070098;28;20272;-79
2022/07/31 05:11:40;;;;;;;0.30;0.30;;;20.40;99.90;;;;;;5066878;28;20552;-79
2022/07/31 05:14:08;;;;;;;0.70;0.70;;;20.40;99.90;;;;;;5065096;28;20188;-79
2022/07/31 05:16:35;;;;;;;0.90;0.90;;;20.50;99.90;;;;;;5059280;28;20201;-79
2022/07/31 05:19:01;;;;;;;1.27;0.53;;;20.50;99.90;;;;;;5061125;28;20184;-79
2022/07/31 05:21:29;;;;;;;0.30;0.30;;;20.50;99.90;;;;;;5068157;28;20215;-79
2022/07/31 05:23:55;;;;;;;1.10;1.10;;;20.70;99.90;;;;;;5068693;28;20822;-79
2022/07/31 05:26:21;;;;;;;0.23;0.23;;;20.80;99.90;;;;;;5066674;28;20184;-79
2022/07/31 05:28:48;;;;;;;0.40;0.40;;;21.00;99.90;;;;;;5069576;28;20610;-79
2022/07/31 05:31:15;;;;;;;0.30;0.30;;;21.20;99.90;;;;;;5060672;28;20713;-79
2022/07/31 05:33:40;;;;;;;0.57;0.57;;;21.40;99.90;;;;;;5065446;28;20192;-79
2022/07/31 05:36:06;;;;;;;0.30;0.30;;;21.40;99.90;;;;;;5072651;28;20188;-78
2022/07/31 05:38:32;;;;;;;0.60;0.60;;;21.40;99.90;;;;;;5070567;28;20181;-79
2022/07/31 05:40:58;;;;;;;0.47;0.47;;;21.40;99.90;;;;;;5070156;28;20238;-80
2022/07/31 05:43:23;;;;;;;0.53;0.53;;;21.50;99.90;;;;;;5063529;28;20571;-79
2022/07/31 05:45:49;;;;;;;0.30;0.30;;;21.60;99.90;;;;;;5069194;28;20227;-79
2022/07/31 05:48:15;;;;;;;0.47;0.43;;;21.60;99.90;;;;;;5085791;28;20197;-79
2022/07/31 05:50:45;;;;;;;0.40;0.40;;;21.80;99.90;;;;;;5070862;28;20192;-79
2022/07/31 05:53:13;;;;;;;0.20;0.20;;;21.90;99.90;;;;;;5076946;28;20220;-79
2022/07/31 05:55:40;;;;;;;0.37;0.37;;;22.00;99.90;;;;;;5060746;28;20186;-79
2022/07/31 05:58:06;;;;;;;0.30;0.30;;;22.00;99.90;;;;;;5067684;28;20189;-79
2022/07/31 06:00:32;;;;;;;0.30;0.30;;;21.90;99.90;;;;;;5075922;28;20552;-79
2022/07/31 06:02:58;;;;;;;0.40;0.40;;;21.70;99.90;;;;;;5069269;28;20184;-79
2022/07/31 06:05:25;;;;;;;0.37;0.37;;;22.00;99.90;;;;;;5069301;28;20225;-80
2022/07/31 06:07:51;;;;;;;0.40;0.40;;;22.10;99.90;;;;;;5066246;28;20208;-79
2022/07/31 06:10:17;;;;;;;0.50;0.50;;;22.30;99.90;;;;;;5063683;28;20647;-79
2022/07/31 06:12:43;;;;;;;0.57;0.57;;;22.40;99.90;;;;;;5069179;28;20255;-79
2022/07/31 06:15:08;;;;;;;0.50;0.50;;;22.40;99.90;;;;;;5070080;28;20193;-79
2022/07/31 06:17:36;;;;;;;0.60;0.60;;;22.40;99.90;;;;;;5069495;28;20205;-80
2022/07/31 06:20:02;;;;;;;0.40;0.40;;;22.50;99.90;;;;;;5069343;28;20817;-80
2022/07/31 06:22:28;;;;;;;0.37;0.37;;;22.30;99.90;;;;;;5063554;28;20347;-80
2022/07/31 06:24:53;;;;;;;0.30;0.30;;;22.00;99.90;;;;;;5070699;28;20681;-80
2022/07/31 06:27:19;;;;;;;0.33;0.33;;;21.90;99.90;;;;;;5070673;28;20276;-80
2022/07/31 06:29:44;;;;;;;0.70;0.53;;;22.00;99.90;;;;;;5068978;28;20195;-79
2022/07/31 06:32:10;;;;;;;0.20;0.20;;;21.80;99.90;;;;;;5085291;28;20784;-79
2022/07/31 06:34:35;;;;;;;0.20;0.20;;;22.20;99.90;;;;;;5064325;28;20647;-79
2022/07/31 06:37:01;;;;;;;1.37;0.70;;;22.40;99.90;;;;;;5068634;28;20219;-80
2022/07/31 06:39:26;;;;;;;0.37;0.37;;;22.30;99.90;;;;;;5073968;28;20193;-79
2022/07/31 06:41:52;;;;;;;0.33;0.33;;;22.60;99.90;;;;;;5071075;28;20855;-80
2022/07/31 06:44:18;;;;;;;0.33;0.33;;;22.90;99.90;;;;;;5070365;28;20258;-79
2022/07/31 06:46:48;;;;;;;0.40;0.40;;;23.20;99.90;;;;;;5071077;28;20211;-80
2022/07/31 06:49:14;;;;;;;0.53;0.53;;;23.50;99.90;;;;;;5071966;28;20561;-80
2022/07/31 06:51:40;;;;;;;0.60;0.60;;;23.70;99.90;;;;;;5061616;28;20194;-80
2022/07/31 06:54:08;;;;;;;0.30;0.30;;;23.70;99.90;;;;;;5063883;28;20196;-80
2022/07/31 06:56:35;;;;;;;0.67;0.67;;;23.90;99.90;;;;;;5068069;28;20177;-79
2022/07/31 06:59:02;;;;;;;1.70;0.87;;;23.20;99.90;;;;;;5063434;28;20212;-80
2022/07/31 07:01:28;;;;;;;1.93;0.87;;;23.50;99.90;;;;;;5071267;28;20200;-80
2022/07/31 07:03:54;;;;;;;0.83;0.83;;;23.70;99.90;;;;;;5063790;28;20216;-80
2022/07/31 07:06:20;;;;;;;0.50;0.40;;;24.00;99.90;;;;;;5064236;28;20182;-79
2022/07/31 07:08:45;;;;;;;0.37;0.37;;;24.00;99.90;;;;;;5070773;28;20564;-80
2022/07/31 07:11:11;;;;;;;0.70;0.50;;;23.90;99.90;;;;;;5057382;28;20197;-80
2022/07/31 07:13:37;;;;;;;1.20;0.70;;;24.10;99.90;;;;;;5069992;28;20188;-80
2022/07/31 07:16:03;;;;;;;1.03;1.03;;;24.40;99.90;;;;;;5064555;28;20169;-80
2022/07/31 07:18:28;;;;;;;0.40;0.40;;;24.00;99.90;;;;;;5064957;28;20545;-80
2022/07/31 07:20:54;;;;;;;0.50;0.50;;;24.10;99.90;;;;;;5072112;28;20201;-79
2022/07/31 07:23:20;;;;;;;0.30;0.30;;;24.30;99.90;;;;;;5065561;28;20182;-81
2022/07/31 07:25:46;;;;;;;1.03;0.47;;;24.50;99.90;;;;;;5058693;28;20562;-80
2022/07/31 07:28:12;;;;;;;0.40;0.40;;;24.20;99.90;;;;;;5061578;28;20177;-80
2022/07/31 07:30:38;;;;;;;0.50;0.50;;;23.70;99.90;;;;;;5062141;28;20173;-80
2022/07/31 07:33:04;;;;;;;0.30;0.30;;;24.10;99.90;;;;;;5067344;28;20185;-80
2022/07/31 07:35:30;;;;;;;0.80;0.67;;;24.10;99.90;;;;;;5064510;28;20212;-80
2022/07/31 07:37:56;;;;;;;2.00;0.97;;;23.90;99.90;;;;;;5063067;28;20186;-80
2022/07/31 07:40:22;;;;;;;0.70;0.70;;;23.70;99.90;;;;;;5069118;28;20721;-80
2022/07/31 07:42:48;;;;;;;0.50;0.50;;;23.80;99.90;;;;;;5095855;28;20209;-80
2022/07/31 07:45:13;;;;;;;0.40;0.40;;;24.10;99.90;;;;;;5077449;28;20749;-79
2022/07/31 07:47:39;;;;;;;0.37;0.37;;;24.30;99.90;;;;;;5068637;28;20276;-80
2022/07/31 07:50:06;;;;;;;0.43;0.43;;;24.50;99.90;;;;;;5080309;28;20200;-79
2022/07/31 07:52:36;;;;;;;2.80;0.63;;;24.50;99.90;;;;;;5074573;28;20251;-80
2022/07/31 07:55:04;;;;;;;0.63;0.40;;;24.70;99.90;;;;;;5066786;28;20192;-80
2022/07/31 07:57:30;;;;;;;0.40;0.40;;;24.90;99.90;;;;;;5066186;28;20662;-80
2022/07/31 07:59:59;;;;;;;0.83;0.50;;;25.30;99.90;;;;;;5073261;28;20242;-80
2022/07/31 08:02:24;;;;;;;0.93;0.53;;;25.80;99.90;;;;;;5058745;28;20213;-80
2022/07/31 08:04:50;;;;;;;1.73;1.63;;;24.60;99.90;;;;;;5070103;28;20235;-80
2022/07/31 08:07:17;;;;;;;0.57;0.40;;;24.40;99.90;;;;;;5072990;28;20234;-80
2022/07/31 08:09:42;;;;;;;0.57;0.57;;;24.80;99.90;;;;;;5070568;28;20185;-80
2022/07/31 08:12:08;;;;;;;1.67;0.70;;;25.10;99.90;;;;;;5070319;28;20196;-80
2022/07/31 08:14:34;;;;;;;0.63;0.63;;;24.80;99.90;;;;;;5062472;28;20189;-79
2022/07/31 08:16:59;;;;;;;0.73;0.73;;;25.00;99.90;;;;;;5074383;28;20277;-80
2022/07/31 08:19:25;;;;;;;1.00;1.00;;;25.20;99.90;;;;;;5072909;28;20262;-80
2022/07/31 08:21:51;;;;;;;0.50;0.50;;;25.00;99.90;;;;;;5068571;28;20205;-80
2022/07/31 08:24:16;;;;;;;0.63;0.40;;;25.90;99.90;;;;;;5077387;28;20208;-80
2022/07/31 08:29:26;;;;;;;0.47;0.47;;;26.50;99.90;;;;;;5077166;28;20669;-80
2022/07/31 08:31:53;;;;;;;1.17;0.47;;;26.60;99.90;;;;;;5076396;28;20239;-80
2022/07/31 08:34:18;;;;;;;0.87;0.37;;;27.10;99.90;;;;;;5079587;28;20219;-80
2022/07/31 08:36:44;;;;;;;0.50;0.50;;;27.40;99.90;;;;;;5076312;28;20189;-80
2022/07/31 08:39:10;;;;;;;0.60;0.60;;;27.30;99.90;;;;;;5072296;28;20654;-80
2022/07/31 08:41:39;;;;;;;1.67;1.33;;;27.40;99.90;;;;;;5067389;28;20206;-80
2022/07/31 08:44:06;;;;;;;0.83;0.60;;;27.80;99.90;;;;;;5071114;28;20213;-80
2022/07/31 08:46:35;;;;;;;1.43;0.60;;;28.00;99.90;;;;;;5073475;28;20181;-80
2022/07/31 08:49:02;;;;;;;0.40;0.40;;;28.20;99.90;;;;;;5077510;28;20193;-80
2022/07/31 08:51:29;;;;;;;0.57;0.57;;;28.40;99.90;;;;;;5077257;28;20198;-80
2022/07/31 08:53:56;;;;;;;0.50;0.38;;;28.30;99.90;;;;;;5075484;28;20185;-80
2022/07/31 08:56:23;;;;;;;0.50;0.50;;;28.20;99.90;;;;;;5090397;28;20533;-80
2022/07/31 08:58:48;;;;;;;0.50;0.50;;;28.50;99.90;;;;;;5070080;28;20202;-80
2022/07/31 09:01:14;;;;;;;0.52;0.52;;;28.70;99.90;;;;;;5077098;28;20347;-80
2022/07/31 09:03:40;;;;;;;2.45;1.00;;;29.10;99.90;;;;;;5069852;28;20204;-80
2022/07/31 09:06:06;;;;;;;0.93;0.60;;;29.20;99.90;;;;;;5071933;28;20614;-80
2022/07/31 09:08:32;;;;;;;0.65;0.65;;;29.10;99.90;;;;;;5081314;28;20212;-79
2022/07/31 09:11:06;;;;;;;0.80;0.80;;;29.20;99.90;;;;;;5077276;28;20212;-80
2022/07/31 09:13:33;;;;;;;0.50;0.50;;;29.00;99.90;;;;;;5070955;28;20185;-80
2022/07/31 09:15:59;;;;;;;1.50;0.82;;;28.50;99.90;;;;;;5074704;28;20223;-79
2022/07/31 09:18:25;;;;;;;0.30;0.30;;;28.30;99.90;;;;;;5070212;28;20189;-79
2022/07/31 09:21:02;;;;;;;0.57;0.47;;;28.10;99.90;;;;;;5073252;28;20215;-80
2022/07/31 09:23:29;;;;;;;0.80;0.77;;;27.90;99.90;;;;;;5072357;28;20239;-79
2022/07/31 09:26:03;;;;;;;0.30;0.30;;;28.20;99.90;;;;;;5066143;28;20182;-79
2022/07/31 09:28:35;;;;;;;0.60;0.60;;;28.30;99.90;;;;;;5065809;28;20181;-79
2022/07/31 09:31:01;;;;;;;0.40;0.40;;;28.30;99.90;;;;;;5070857;28;20258;-80
2022/07/31 09:33:29;;;;;;;0.60;0.60;;;27.70;99.90;;;;;;5071558;28;20200;-79
2022/07/31 09:35:55;;;;;;;0.50;0.50;;;27.50;99.90;;;;;;5065757;28;20194;-79
2022/07/31 09:38:27;;;;;;;0.80;0.70;;;27.30;99.90;;;;;;5076021;28;20220;-79
2022/07/31 09:40:52;;;;;;;0.30;0.30;;;27.40;99.90;;;;;;5091871;28;20207;-79
2022/07/31 09:43:23;;;;;;;0.30;0.30;;;27.70;99.90;;;;;;5064845;28;20181;-79
2022/07/31 09:45:57;;;;;;;0.70;0.70;;;27.70;99.90;;;;;;5065861;28;20201;-79
2022/07/31 09:48:23;;;;;;;0.63;0.63;;;27.90;99.90;;;;;;5066028;28;20184;-79
2022/07/31 09:50:58;;;;;;;0.55;0.55;;;27.90;99.90;;;;;;5065523;28;20243;-79
2022/07/31 09:53:24;;;;;;;1.00;0.90;;;27.40;99.90;;;;;;5070155;28;20181;-79
2022/07/31 09:55:51;;;;;;;0.65;0.65;;;27.50;99.90;;;;;;5074929;28;20676;-79
2022/07/31 09:58:17;;;;;;;2.47;0.97;;;27.10;99.90;;;;;;5079298;28;20266;-79
2022/07/31 10:00:44;;;;;;;0.60;0.60;;;26.70;99.90;;;;;;5066830;28;20221;-79
2022/07/31 10:03:12;;;;;;;0.63;0.55;;;27.00;99.90;;;;;;5070693;28;20717;-79
2022/07/31 10:05:40;;;;;;;0.75;0.70;;;27.70;99.90;;;;;;5069078;28;20215;-80
2022/07/31 10:08:07;;;;;;;0.68;0.68;;;28.10;99.90;;;;;;5071780;28;20547;-79
2022/07/31 10:10:33;;;;;;;0.80;0.80;;;28.70;99.90;;;;;;5073296;28;20284;-79
2022/07/31 10:13:05;;;;;;;0.88;0.70;;;27.90;99.90;;;;;;5070364;28;20198;-79
2022/07/31 10:15:33;;;;;;;0.50;0.50;;;27.60;99.90;;;;;;5064226;28;20218;-80
2022/07/31 10:18:00;;;;;;;0.40;0.40;;;27.40;99.90;;;;;;5062470;28;20190;-79
2022/07/31 10:20:26;;;;;;;0.50;0.50;;;27.60;99.90;;;;;;5074289;28;20665;-79
2022/07/31 10:22:56;;;;;;;1.02;1.00;;;27.80;99.90;;;;;;5080307;28;20269;-80
2022/07/31 10:25:27;;;;;;;0.75;0.75;;;28.50;99.90;;;;;;5086718;28;20255;-79
2022/07/31 10:27:55;;;;;;;0.77;0.77;;;28.10;99.90;;;;;;5071238;28;20187;-79
2022/07/31 10:30:22;;;;;;;0.82;0.82;;;27.60;99.90;;;;;;5074045;28;20180;-80
2022/07/31 10:32:49;;;;;;;0.30;0.30;;;28.20;99.90;;;;;;5071293;28;20614;-80
2022/07/31 10:35:16;;;;;;;0.90;0.65;;;28.10;99.90;;;;;;5070610;28;20246;-79
2022/07/31 10:38:11;;;;;;;0.55;0.55;;;28.20;99.90;;;;;;5069503;28;20261;-80
2022/07/31 10:40:50;;;;;;;0.60;0.60;;;28.40;99.90;;;;;;5067230;28;20189;-79
2022/07/31 10:43:19;;;;;;;0.35;0.35;;;29.30;99.90;;;;;;5055991;28;20188;-79
2022/07/31 10:45:52;;;;;;;0.68;0.68;;;29.60;99.90;;;;;;5066267;28;20224;-79
2022/07/31 10:48:19;;;;;;;0.63;0.63;;;29.50;99.90;;;;;;5070756;28;20185;-79
2022/07/31 10:50:46;;;;;;;0.70;0.70;;;29.30;99.90;;;;;;5072939;28;20182;-79
2022/07/31 10:53:14;;;;;;;0.82;0.82;;;29.90;99.90;;;;;;5072911;28;20189;-80
2022/07/31 10:55:40;;;;;;;0.65;0.60;;;30.20;99.90;;;;;;5067119;28;20207;-80
2022/07/31 10:58:08;;;;;;;1.17;0.80;;;30.50;99.90;;;;;;5065686;28;20276;-79
2022/07/31 11:00:34;;;;;;;0.88;0.75;;;30.00;99.90;;;;;;5071303;28;20192;-80
2022/07/31 11:03:10;;;;;;;1.38;0.82;;;29.90;99.90;;;;;;5056523;28;20217;-79
2022/07/31 11:05:35;;;;;;;0.57;0.57;;;30.10;99.90;;;;;;5086813;28;20201;-79
2022/07/31 11:08:04;;;;;;;0.60;0.60;;;30.40;99.90;;;;;;5070191;28;20676;-79
2022/07/31 11:10:32;;;;;;;0.80;0.80;;;30.60;99.90;;;;;;5065406;28;20658;-79
2022/07/31 11:13:12;;;;;;;1.25;0.90;;;30.20;99.90;;;;;;5068302;28;20193;-79
2022/07/31 11:15:37;;;;;;;0.70;0.70;;;30.40;99.90;;;;;;5066053;28;20637;-79
2022/07/31 11:18:13;;;;;;;1.02;0.88;;;29.20;99.90;;;;;;5076749;28;20177;-79
2022/07/31 11:20:41;;;;;;;0.77;0.77;;;29.30;99.90;;;;;;5069007;28;20271;-80
2022/07/31 11:23:08;;;;;;;0.40;0.40;;;30.00;99.90;;;;;;5072951;28;20659;-79
2022/07/31 11:25:35;;;;;;;1.20;1.10;;;30.60;99.90;;;;;;5074564;28;20196;-79
2022/07/31 11:28:17;;;;;;;1.30;1.17;;;30.70;99.90;;;;;;5074808;28;20185;-79
2022/07/31 11:30:48;;;;;;;0.50;0.50;;;30.00;99.90;;;;;;5071412;28;20676;-80
2022/07/31 11:33:14;;;;;;;0.68;0.68;;;30.40;99.90;;;;;;5071861;28;20298;-80
2022/07/31 11:35:40;;;;;;;0.85;0.85;;;30.80;99.90;;;;;;5074420;28;20225;-80
2022/07/31 11:38:06;;;;;;;0.50;0.50;;;30.80;99.90;;;;;;5074319;28;20185;-80
2022/07/31 11:40:31;;;;;;;0.47;0.47;;;29.90;99.90;;;;;;5075371;28;20191;-79
2022/07/31 11:42:57;;;;;;;0.70;0.70;;;30.00;99.90;;;;;;5091057;28;20783;-80
2022/07/31 11:45:23;;;;;;;0.73;0.73;;;29.90;99.90;;;;;;5070194;28;20213;-80
2022/07/31 11:47:50;;;;;;;1.02;0.60;;;29.90;99.90;;;;;;5074787;28;20220;-80
2022/07/31 11:50:16;;;;;;;1.15;0.98;;;30.10;99.90;;;;;;5067968;28;20544;-80
2022/07/31 11:52:42;;;;;;;0.43;0.40;;;30.50;99.90;;;;;;5075022;28;20579;-79
2022/07/31 11:55:13;;;;;;;0.30;0.30;;;30.90;99.90;;;;;;5090627;28;20185;-79
2022/07/31 11:57:40;;;;;;;1.13;0.90;;;31.20;99.90;;;;;;5074579;28;20193;-79
2022/07/31 12:00:15;;;;;;;1.10;0.70;;;31.30;99.90;;;;;;5067962;28;20207;-79
2022/07/31 12:02:43;;;;;;;0.55;0.55;;;31.10;99.90;;;;;;5073279;28;20218;-80
2022/07/31 12:05:12;;;;;;;0.95;0.68;;;30.60;99.90;;;;;;5073937;28;20264;-79
2022/07/31 12:07:41;;;;;;;0.60;0.55;;;30.10;99.90;;;;;;5068862;28;20173;-79
2022/07/31 12:10:11;;;;;;;2.17;1.20;;;30.50;99.90;;;;;;5074713;28;20549;-79
2022/07/31 12:12:38;;;;;;;0.30;0.30;;;30.50;99.90;;;;;;5074016;28;20205;-79
2022/07/31 12:15:19;;;;;;;0.50;0.50;;;30.40;99.90;;;;;;5087787;28;20201;-79
2022/07/31 12:17:58;;;;;;;0.70;0.70;;;31.10;99.90;;;;;;5070146;28;20189;-80
2022/07/31 12:20:23;;;;;;;0.45;0.45;;;31.70;99.90;;;;;;5070065;28;20184;-79
2022/07/31 12:22:59;;;;;;;1.13;1.02;;;31.90;99.90;;;;;;5071897;28;20213;-80
2022/07/31 12:25:25;;;;;;;0.50;0.50;;;32.50;99.90;;;;;;5072441;28;20208;-80
2022/07/31 12:27:54;;;;;;;0.80;0.80;;;33.10;99.90;;;;;;5073016;28;20185;-80
2022/07/31 12:30:24;;;;;;;0.60;0.60;;;33.40;99.90;;;;;;5072081;28;20181;-79
2022/07/31 12:32:50;;;;;;;1.17;0.73;;;33.70;99.90;;;;;;5067569;28;20208;-80
2022/07/31 12:35:16;;;;;;;0.68;0.68;;;34.00;99.90;;;;;;5072347;28;20179;-80
2022/07/31 12:37:47;;;;;;;0.65;0.65;;;34.10;99.90;;;;;;5073567;28;20291;-80
2022/07/31 12:40:26;;;;;;;0.65;0.65;;;34.40;99.90;;;;;;5069775;28;20190;-79
2022/07/31 12:42:52;;;;;;;0.60;0.60;;;33.90;99.90;;;;;;5071251;28;20697;-80
2022/07/31 12:45:34;;;;;;;0.45;0.45;;;33.40;99.90;;;;;;5065050;28;20197;-80
2022/07/31 12:48:01;;;;;;;0.40;0.40;;;33.40;99.90;;;;;;5075562;28;20188;-80
2022/07/31 12:50:29;;;;;;;0.70;0.70;;;33.20;99.90;;;;;;5086741;28;20199;-80
2022/07/31 12:52:58;;;;;;;0.68;0.47;;;32.70;99.90;;;;;;5073136;28;20621;-79